sensor_id;sensor_type;location;lat;lon;timestamp;temperature;humidity
63966;DHT22;50151;52.030;5.350;2022-07-10T06:23:41;16.60;72.00
63966;DHT22;50151;52.030;5.350;2022-07-10T06:26:08;16.70;71.90
63966;DHT22;50151;52.030;5.350;2022-07-10T06:28:35;16.70;72.00
63966;DHT22;50151;52.030;5.350;2022-07-10T06:31:02;16.90;71.50
63966;DHT22;50151;52.030;5.350;2022-07-10T06:33:29;17.10;71.70
63966;DHT22;50151;52.030;5.350;2022-07-10T06:35:55;16.90;71.00
63966;DHT22;50151;52.030;5.350;2022-07-10T06:38:22;16.90;71.40
63966;DHT22;50151;52.030;5.350;2022-07-10T06:40:53;17.00;71.40
63966;DHT22;50151;52.030;5.350;2022-07-10T06:43:20;17.00;71.00
63966;DHT22;50151;52.030;5.350;2022-07-10T06:45:47;17.10;71.40
63966;DHT22;50151;52.030;5.350;2022-07-10T06:48:14;17.30;71.30
63966;DHT22;50151;52.030;5.350;2022-07-10T06:50:41;17.10;70.80
63966;DHT22;50151;52.030;5.350;2022-07-10T06:53:08;17.30;71.30
63966;DHT22;50151;52.030;5.350;2022-07-10T06:55:35;17.20;71.00
63966;DHT22;50151;52.030;5.350;2022-07-10T06:58:02;17.30;71.00
63966;DHT22;50151;52.030;5.350;2022-07-10T07:00:29;17.20;70.70
63966;DHT22;50151;52.030;5.350;2022-07-10T07:02:56;17.30;70.90
63966;DHT22;50151;52.030;5.350;2022-07-10T07:05:23;17.40;70.60
63966;DHT22;50151;52.030;5.350;2022-07-10T07:07:49;17.40;70.80
63966;DHT22;50151;52.030;5.350;2022-07-10T07:10:16;17.60;70.60
63966;DHT22;50151;52.030;5.350;2022-07-10T07:12:43;17.60;70.60
63966;DHT22;50151;52.030;5.350;2022-07-10T07:15:10;17.60;70.30
63966;DHT22;50151;52.030;5.350;2022-07-10T07:17:43;17.50;70.20
63966;DHT22;50151;52.030;5.350;2022-07-10T07:20:29;17.60;70.40
63966;DHT22;50151;52.030;5.350;2022-07-10T07:23:14;17.70;70.10
63966;DHT22;50151;52.030;5.350;2022-07-10T07:25:41;17.60;70.30
63966;DHT22;50151;52.030;5.350;2022-07-10T07:28:14;17.60;70.40
63966;DHT22;50151;52.030;5.350;2022-07-10T07:30:42;17.60;70.60
63966;DHT22;50151;52.030;5.350;2022-07-10T07:33:09;17.70;70.30
63966;DHT22;50151;52.030;5.350;2022-07-10T07:35:36;17.70;70.60
63966;DHT22;50151;52.030;5.350;2022-07-10T07:38:03;17.70;70.10
63966;DHT22;50151;52.030;5.350;2022-07-10T07:40:30;17.70;69.40
63966;DHT22;50151;52.030;5.350;2022-07-10T07:42:56;17.80;69.70
63966;DHT22;50151;52.030;5.350;2022-07-10T07:45:24;17.70;69.10
63966;DHT22;50151;52.030;5.350;2022-07-10T07:47:52;17.70;69.00
63966;DHT22;50151;52.030;5.350;2022-07-10T07:50:22;17.90;69.00
63966;DHT22;50151;52.030;5.350;2022-07-10T07:52:49;18.00;68.70
63966;DHT22;50151;52.030;5.350;2022-07-10T07:55:17;18.20;69.10
63966;DHT22;50151;52.030;5.350;2022-07-10T07:57:45;18.10;68.80
63966;DHT22;50151;52.030;5.350;2022-07-10T08:00:14;17.90;68.30
63966;DHT22;50151;52.030;5.350;2022-07-10T08:02:41;17.90;69.20
63966;DHT22;50151;52.030;5.350;2022-07-10T08:05:09;17.80;68.40
63966;DHT22;50151;52.030;5.350;2022-07-10T08:07:41;17.80;68.70
63966;DHT22;50151;52.030;5.350;2022-07-10T08:10:10;17.90;69.10
63966;DHT22;50151;52.030;5.350;2022-07-10T08:12:36;17.90;69.60
63966;DHT22;50151;52.030;5.350;2022-07-10T08:15:07;17.80;68.60
63966;DHT22;50151;52.030;5.350;2022-07-10T08:17:34;17.70;68.90
63966;DHT22;50151;52.030;5.350;2022-07-10T08:20:02;17.70;68.70
63966;DHT22;50151;52.030;5.350;2022-07-10T08:22:29;17.90;68.50
63966;DHT22;50151;52.030;5.350;2022-07-10T08:24:56;17.80;68.80
63966;DHT22;50151;52.030;5.350;2022-07-10T08:27:25;17.80;70.10
63966;DHT22;50151;52.030;5.350;2022-07-10T08:29:52;17.70;69.40
63966;DHT22;50151;52.030;5.350;2022-07-10T08:32:19;17.80;69.70
63966;DHT22;50151;52.030;5.350;2022-07-10T08:34:46;17.50;69.60
63966;DHT22;50151;52.030;5.350;2022-07-10T08:37:12;17.80;70.00
63966;DHT22;50151;52.030;5.350;2022-07-10T08:39:39;17.80;69.10
63966;DHT22;50151;52.030;5.350;2022-07-10T08:42:10;17.90;69.10
63966;DHT22;50151;52.030;5.350;2022-07-10T08:44:37;17.80;69.00
63966;DHT22;50151;52.030;5.350;2022-07-10T08:47:04;17.90;68.80
63966;DHT22;50151;52.030;5.350;2022-07-10T08:49:31;18.00;69.00
63966;DHT22;50151;52.030;5.350;2022-07-10T08:52:04;18.10;68.80
63966;DHT22;50151;52.030;5.350;2022-07-10T08:54:32;18.30;68.30
63966;DHT22;50151;52.030;5.350;2022-07-10T08:57:03;18.40;67.30
63966;DHT22;50151;52.030;5.350;2022-07-10T08:59:30;18.50;66.90
63966;DHT22;50151;52.030;5.350;2022-07-10T09:01:58;18.60;66.40
63966;DHT22;50151;52.030;5.350;2022-07-10T09:04:26;18.90;66.20
63966;DHT22;50151;52.030;5.350;2022-07-10T09:06:54;18.90;65.20
63966;DHT22;50151;52.030;5.350;2022-07-10T09:09:21;19.20;66.00
63966;DHT22;50151;52.030;5.350;2022-07-10T09:11:48;19.40;65.30
63966;DHT22;50151;52.030;5.350;2022-07-10T09:14:21;19.30;65.30
63966;DHT22;50151;52.030;5.350;2022-07-10T09:17:01;19.00;64.70
63966;DHT22;50151;52.030;5.350;2022-07-10T09:19:28;19.00;65.10
63966;DHT22;50151;52.030;5.350;2022-07-10T09:22:04;19.30;64.80
63966;DHT22;50151;52.030;5.350;2022-07-10T09:24:38;19.30;64.70
63966;DHT22;50151;52.030;5.350;2022-07-10T09:27:05;19.40;65.00
63966;DHT22;50151;52.030;5.350;2022-07-10T09:29:43;19.30;64.60
63966;DHT22;50151;52.030;5.350;2022-07-10T09:32:10;19.40;63.70
63966;DHT22;50151;52.030;5.350;2022-07-10T09:37:27;19.50;64.10
63966;DHT22;50151;52.030;5.350;2022-07-10T09:39:58;19.60;62.60
63966;DHT22;50151;52.030;5.350;2022-07-10T09:47:55;19.80;62.70
63966;DHT22;50151;52.030;5.350;2022-07-10T09:50:31;19.70;62.30
63966;DHT22;50151;52.030;5.350;2022-07-10T09:53:00;19.50;62.20
63966;DHT22;50151;52.030;5.350;2022-07-10T09:55:29;19.30;62.20
63966;DHT22;50151;52.030;5.350;2022-07-10T09:58:08;19.40;63.00
63966;DHT22;50151;52.030;5.350;2022-07-10T10:00:39;19.60;62.40
63966;DHT22;50151;52.030;5.350;2022-07-10T10:03:09;20.00;62.10
63966;DHT22;50151;52.030;5.350;2022-07-10T10:08:12;20.30;61.30
63966;DHT22;50151;52.030;5.350;2022-07-10T10:10:43;20.20;61.80
63966;DHT22;50151;52.030;5.350;2022-07-10T10:13:11;20.00;61.90
63966;DHT22;50151;52.030;5.350;2022-07-10T10:15:43;20.40;62.00
63966;DHT22;50151;52.030;5.350;2022-07-10T10:18:10;20.40;61.20
63966;DHT22;50151;52.030;5.350;2022-07-10T10:20:40;20.60;61.10
63966;DHT22;50151;52.030;5.350;2022-07-10T10:23:13;20.50;61.50
63966;DHT22;50151;52.030;5.350;2022-07-10T10:25:40;20.30;61.10
63966;DHT22;50151;52.030;5.350;2022-07-10T10:28:09;20.20;61.30
63966;DHT22;50151;52.030;5.350;2022-07-10T10:30:46;20.40;60.50
63966;DHT22;50151;52.030;5.350;2022-07-10T10:35:59;20.60;61.40
63966;DHT22;50151;52.030;5.350;2022-07-10T10:49:17;20.90;60.10
63966;DHT22;50151;52.030;5.350;2022-07-10T10:52:01;20.80;60.60
63966;DHT22;50151;52.030;5.350;2022-07-10T10:57:18;20.60;61.00
63966;DHT22;50151;52.030;5.350;2022-07-10T10:59:52;20.70;61.30
63966;DHT22;50151;52.030;5.350;2022-07-10T11:02:30;20.60;60.00
63966;DHT22;50151;52.030;5.350;2022-07-10T11:07:58;20.50;61.40
63966;DHT22;50151;52.030;5.350;2022-07-10T11:15:24;20.20;60.60
63966;DHT22;50151;52.030;5.350;2022-07-10T11:17:52;20.10;60.80
63966;DHT22;50151;52.030;5.350;2022-07-10T11:20:20;20.30;60.80
63966;DHT22;50151;52.030;5.350;2022-07-10T11:22:57;20.60;60.40
63966;DHT22;50151;52.030;5.350;2022-07-10T11:25:51;20.60;59.40
63966;DHT22;50151;52.030;5.350;2022-07-10T11:31:09;20.50;59.70
63966;DHT22;50151;52.030;5.350;2022-07-10T11:33:43;20.80;59.60
63966;DHT22;50151;52.030;5.350;2022-07-10T11:36:16;20.90;58.90
63966;DHT22;50151;52.030;5.350;2022-07-10T11:38:44;20.90;58.50
63966;DHT22;50151;52.030;5.350;2022-07-10T11:41:19;20.80;58.60
63966;DHT22;50151;52.030;5.350;2022-07-10T11:44:03;20.70;57.90
63966;DHT22;50151;52.030;5.350;2022-07-10T11:46:33;20.60;57.30
63966;DHT22;50151;52.030;5.350;2022-07-10T11:49:04;20.80;57.20
63966;DHT22;50151;52.030;5.350;2022-07-10T11:51:34;20.70;57.50
63966;DHT22;50151;52.030;5.350;2022-07-10T11:54:06;21.00;58.10
63966;DHT22;50151;52.030;5.350;2022-07-10T11:56:40;21.00;57.30
63966;DHT22;50151;52.030;5.350;2022-07-10T11:59:13;20.90;57.00
63966;DHT22;50151;52.030;5.350;2022-07-10T12:01:50;20.90;56.20
63966;DHT22;50151;52.030;5.350;2022-07-10T12:04:19;21.10;57.00
63966;DHT22;50151;52.030;5.350;2022-07-10T12:06:51;21.20;56.20
63966;DHT22;50151;52.030;5.350;2022-07-10T12:09:20;21.30;54.90
63966;DHT22;50151;52.030;5.350;2022-07-10T12:12:05;21.70;55.50
63966;DHT22;50151;52.030;5.350;2022-07-10T12:14:32;21.70;54.50
63966;DHT22;50151;52.030;5.350;2022-07-10T12:17:00;21.70;55.70
63966;DHT22;50151;52.030;5.350;2022-07-10T12:19:29;21.90;54.30
63966;DHT22;50151;52.030;5.350;2022-07-10T12:21:59;21.60;54.90
63966;DHT22;50151;52.030;5.350;2022-07-10T12:24:28;21.70;55.70
63966;DHT22;50151;52.030;5.350;2022-07-10T12:26:55;22.10;54.70
63966;DHT22;50151;52.030;5.350;2022-07-10T12:29:29;22.10;52.80
63966;DHT22;50151;52.030;5.350;2022-07-10T12:32:00;22.10;53.90
63966;DHT22;50151;52.030;5.350;2022-07-10T12:34:37;21.90;54.20
63966;DHT22;50151;52.030;5.350;2022-07-10T12:37:08;22.00;53.30
63966;DHT22;50151;52.030;5.350;2022-07-10T12:39:37;22.30;54.80
63966;DHT22;50151;52.030;5.350;2022-07-10T12:42:06;22.60;53.10
63966;DHT22;50151;52.030;5.350;2022-07-10T12:44:40;22.70;51.70
63966;DHT22;50151;52.030;5.350;2022-07-10T12:50:02;22.70;51.40
63966;DHT22;50151;52.030;5.350;2022-07-10T12:52:29;22.80;50.70
63966;DHT22;50151;52.030;5.350;2022-07-10T12:55:18;22.50;51.00
63966;DHT22;50151;52.030;5.350;2022-07-10T13:00:26;22.40;51.30
63966;DHT22;50151;52.030;5.350;2022-07-10T13:03:02;22.60;50.60
63966;DHT22;50151;52.030;5.350;2022-07-10T13:05:42;22.80;50.90
63966;DHT22;50151;52.030;5.350;2022-07-10T13:10:44;22.70;50.60
63966;DHT22;50151;52.030;5.350;2022-07-10T13:13:11;22.90;51.10
63966;DHT22;50151;52.030;5.350;2022-07-10T13:15:38;22.70;49.00
63966;DHT22;50151;52.030;5.350;2022-07-10T13:18:14;22.90;49.80
63966;DHT22;50151;52.030;5.350;2022-07-10T13:20:42;23.40;49.00
63966;DHT22;50151;52.030;5.350;2022-07-10T13:23:08;23.50;48.20
63966;DHT22;50151;52.030;5.350;2022-07-10T13:25:37;24.00;47.90
63966;DHT22;50151;52.030;5.350;2022-07-10T13:28:08;24.30;46.10
63966;DHT22;50151;52.030;5.350;2022-07-10T13:30:36;24.40;46.60
63966;DHT22;50151;52.030;5.350;2022-07-10T13:33:03;24.30;46.70
63966;DHT22;50151;52.030;5.350;2022-07-10T13:35:31;23.70;47.40
63966;DHT22;50151;52.030;5.350;2022-07-10T13:37:59;23.90;47.90
63966;DHT22;50151;52.030;5.350;2022-07-10T13:40:28;23.80;47.70
63966;DHT22;50151;52.030;5.350;2022-07-10T13:42:55;24.20;48.40
63966;DHT22;50151;52.030;5.350;2022-07-10T13:45:23;24.80;47.10
63966;DHT22;50151;52.030;5.350;2022-07-10T13:47:56;24.40;46.80
63966;DHT22;50151;52.030;5.350;2022-07-10T13:50:23;23.90;47.30
63966;DHT22;50151;52.030;5.350;2022-07-10T13:52:51;23.70;48.30
63966;DHT22;50151;52.030;5.350;2022-07-10T13:55:18;23.40;48.70
63966;DHT22;50151;52.030;5.350;2022-07-10T13:57:44;23.60;49.10
63966;DHT22;50151;52.030;5.350;2022-07-10T14:00:12;23.70;49.50
63966;DHT22;50151;52.030;5.350;2022-07-10T14:02:39;23.50;49.30
63966;DHT22;50151;52.030;5.350;2022-07-10T14:05:06;23.10;49.60
63966;DHT22;50151;52.030;5.350;2022-07-10T14:07:34;23.40;49.90
63966;DHT22;50151;52.030;5.350;2022-07-10T14:10:01;23.40;50.20
63966;DHT22;50151;52.030;5.350;2022-07-10T14:12:28;23.20;50.70
63966;DHT22;50151;52.030;5.350;2022-07-10T14:14:55;23.40;51.10
63966;DHT22;50151;52.030;5.350;2022-07-10T14:17:23;23.70;50.20
63966;DHT22;50151;52.030;5.350;2022-07-10T14:19:51;23.40;50.20
63966;DHT22;50151;52.030;5.350;2022-07-10T14:22:18;23.50;51.90
63966;DHT22;50151;52.030;5.350;2022-07-10T14:24:45;23.70;51.40
63966;DHT22;50151;52.030;5.350;2022-07-10T14:27:11;23.70;51.00
63966;DHT22;50151;52.030;5.350;2022-07-10T14:29:38;23.70;50.90
63966;DHT22;50151;52.030;5.350;2022-07-10T14:32:05;23.70;52.10
63966;DHT22;50151;52.030;5.350;2022-07-10T14:34:32;23.60;51.60
63966;DHT22;50151;52.030;5.350;2022-07-10T14:36:59;23.30;52.20
63966;DHT22;50151;52.030;5.350;2022-07-10T14:39:26;23.10;52.50
63966;DHT22;50151;52.030;5.350;2022-07-10T14:41:53;23.20;52.70
63966;DHT22;50151;52.030;5.350;2022-07-10T14:44:19;23.30;53.10
63966;DHT22;50151;52.030;5.350;2022-07-10T14:46:46;23.00;52.50
63966;DHT22;50151;52.030;5.350;2022-07-10T14:49:14;23.40;52.80
63966;DHT22;50151;52.030;5.350;2022-07-10T14:51:41;23.20;52.20
63966;DHT22;50151;52.030;5.350;2022-07-10T14:54:08;23.30;52.10
63966;DHT22;50151;52.030;5.350;2022-07-10T14:56:36;23.20;52.50
63966;DHT22;50151;52.030;5.350;2022-07-10T14:59:03;23.20;52.60
63966;DHT22;50151;52.030;5.350;2022-07-10T15:01:40;23.50;52.90
63966;DHT22;50151;52.030;5.350;2022-07-10T15:04:07;23.80;51.80
63966;DHT22;50151;52.030;5.350;2022-07-10T15:06:34;23.60;52.10
63966;DHT22;50151;52.030;5.350;2022-07-10T15:09:01;23.50;52.00
63966;DHT22;50151;52.030;5.350;2022-07-10T15:11:27;23.70;52.00
63966;DHT22;50151;52.030;5.350;2022-07-10T15:13:54;23.60;52.00
63966;DHT22;50151;52.030;5.350;2022-07-10T15:16:28;23.20;52.10
63966;DHT22;50151;52.030;5.350;2022-07-10T15:18:55;23.30;52.70
63966;DHT22;50151;52.030;5.350;2022-07-10T15:21:22;23.60;51.60
63966;DHT22;50151;52.030;5.350;2022-07-10T15:23:49;23.50;51.80
63966;DHT22;50151;52.030;5.350;2022-07-10T15:26:16;23.70;51.50
63966;DHT22;50151;52.030;5.350;2022-07-10T15:28:44;23.60;52.10
63966;DHT22;50151;52.030;5.350;2022-07-10T15:31:11;23.70;52.20
63966;DHT22;50151;52.030;5.350;2022-07-10T15:33:38;23.70;51.80
63966;DHT22;50151;52.030;5.350;2022-07-10T15:36:11;23.70;51.80
63966;DHT22;50151;52.030;5.350;2022-07-10T15:38:38;23.50;51.80
63966;DHT22;50151;52.030;5.350;2022-07-10T15:41:04;23.20;52.40
63966;DHT22;50151;52.030;5.350;2022-07-10T15:43:31;23.20;52.60
63966;DHT22;50151;52.030;5.350;2022-07-10T15:45:58;23.40;52.60
63966;DHT22;50151;52.030;5.350;2022-07-10T15:48:26;23.40;52.30
63966;DHT22;50151;52.030;5.350;2022-07-10T15:50:52;23.70;52.40
63966;DHT22;50151;52.030;5.350;2022-07-10T15:53:20;23.40;52.40
63966;DHT22;50151;52.030;5.350;2022-07-10T15:55:47;23.20;54.00
63966;DHT22;50151;52.030;5.350;2022-07-10T15:58:14;23.10;53.60
63966;DHT22;50151;52.030;5.350;2022-07-10T16:00:41;23.00;53.20
63966;DHT22;50151;52.030;5.350;2022-07-10T16:03:07;23.00;54.10
63966;DHT22;50151;52.030;5.350;2022-07-10T16:05:34;23.10;53.90
63966;DHT22;50151;52.030;5.350;2022-07-10T16:08:01;22.80;54.50
63966;DHT22;50151;52.030;5.350;2022-07-10T16:10:28;23.10;53.90
63966;DHT22;50151;52.030;5.350;2022-07-10T16:12:55;22.90;54.50
63966;DHT22;50151;52.030;5.350;2022-07-10T16:15:21;22.80;54.00
63966;DHT22;50151;52.030;5.350;2022-07-10T16:17:48;22.70;54.20
63966;DHT22;50151;52.030;5.350;2022-07-10T16:20:15;22.70;53.60
63966;DHT22;50151;52.030;5.350;2022-07-10T16:22:42;22.70;54.10
63966;DHT22;50151;52.030;5.350;2022-07-10T16:25:09;23.10;54.30
63966;DHT22;50151;52.030;5.350;2022-07-10T16:27:54;23.00;54.40
63966;DHT22;50151;52.030;5.350;2022-07-10T16:30:21;23.10;54.60
63966;DHT22;50151;52.030;5.350;2022-07-10T16:32:48;22.70;54.40
63966;DHT22;50151;52.030;5.350;2022-07-10T16:35:15;22.80;54.80
63966;DHT22;50151;52.030;5.350;2022-07-10T16:37:42;22.50;55.00
63966;DHT22;50151;52.030;5.350;2022-07-10T16:40:09;22.70;55.30
63966;DHT22;50151;52.030;5.350;2022-07-10T16:42:36;22.80;55.90
63966;DHT22;50151;52.030;5.350;2022-07-10T16:45:03;22.60;55.50
63966;DHT22;50151;52.030;5.350;2022-07-10T16:47:31;22.80;55.80
63966;DHT22;50151;52.030;5.350;2022-07-10T16:49:57;22.70;55.10
63966;DHT22;50151;52.030;5.350;2022-07-10T16:52:25;22.60;56.20
63966;DHT22;50151;52.030;5.350;2022-07-10T16:54:52;22.40;57.10
63966;DHT22;50151;52.030;5.350;2022-07-10T16:57:19;22.30;56.40
63966;DHT22;50151;52.030;5.350;2022-07-10T16:59:46;22.40;56.70
63966;DHT22;50151;52.030;5.350;2022-07-10T17:02:13;22.50;56.10
63966;DHT22;50151;52.030;5.350;2022-07-10T17:04:40;22.40;56.20
63966;DHT22;50151;52.030;5.350;2022-07-10T17:07:08;22.40;56.40
63966;DHT22;50151;52.030;5.350;2022-07-10T17:09:35;22.70;56.30
63966;DHT22;50151;52.030;5.350;2022-07-10T17:12:04;22.50;55.80
63966;DHT22;50151;52.030;5.350;2022-07-10T17:14:32;22.50;56.40
63966;DHT22;50151;52.030;5.350;2022-07-10T17:16:59;22.60;56.10
63966;DHT22;50151;52.030;5.350;2022-07-10T17:19:28;22.40;56.00
63966;DHT22;50151;52.030;5.350;2022-07-10T17:21:55;22.50;56.30
63966;DHT22;50151;52.030;5.350;2022-07-10T17:24:25;22.50;56.80
63966;DHT22;50151;52.030;5.350;2022-07-10T17:26:52;22.40;56.90
63966;DHT22;50151;52.030;5.350;2022-07-10T17:29:19;22.40;56.90
63966;DHT22;50151;52.030;5.350;2022-07-10T17:31:46;22.40;55.90
63966;DHT22;50151;52.030;5.350;2022-07-10T17:34:13;22.60;56.80
63966;DHT22;50151;52.030;5.350;2022-07-10T17:36:39;22.80;56.40
63966;DHT22;50151;52.030;5.350;2022-07-10T17:39:06;22.40;56.60
63966;DHT22;50151;52.030;5.350;2022-07-10T17:41:34;22.60;56.50
63966;DHT22;50151;52.030;5.350;2022-07-10T17:44:01;22.50;56.60
63966;DHT22;50151;52.030;5.350;2022-07-10T17:46:27;22.30;57.20
63966;DHT22;50151;52.030;5.350;2022-07-10T17:48:57;22.50;57.30
63966;DHT22;50151;52.030;5.350;2022-07-10T17:51:24;22.70;57.00
63966;DHT22;50151;52.030;5.350;2022-07-10T17:53:51;22.80;56.30
63966;DHT22;50151;52.030;5.350;2022-07-10T17:56:22;23.30;55.40
63966;DHT22;50151;52.030;5.350;2022-07-10T17:58:49;23.40;55.20
63966;DHT22;50151;52.030;5.350;2022-07-10T18:01:16;24.00;53.80
63966;DHT22;50151;52.030;5.350;2022-07-10T18:03:43;24.20;52.50
63966;DHT22;50151;52.030;5.350;2022-07-10T18:06:11;23.90;52.70
63966;DHT22;50151;52.030;5.350;2022-07-10T18:08:38;24.10;52.50
63966;DHT22;50151;52.030;5.350;2022-07-10T18:11:06;24.50;51.70
63966;DHT22;50151;52.030;5.350;2022-07-10T18:13:34;24.20;51.90
63966;DHT22;50151;52.030;5.350;2022-07-10T18:16:00;24.20;52.30
63966;DHT22;50151;52.030;5.350;2022-07-10T18:18:49;24.30;52.00
63966;DHT22;50151;52.030;5.350;2022-07-10T18:21:16;24.00;52.30
63966;DHT22;50151;52.030;5.350;2022-07-10T18:23:44;23.90;52.90
63966;DHT22;50151;52.030;5.350;2022-07-10T18:26:11;24.20;52.30
63966;DHT22;50151;52.030;5.350;2022-07-10T18:28:39;24.60;51.50
63966;DHT22;50151;52.030;5.350;2022-07-10T18:31:07;24.10;52.10
63966;DHT22;50151;52.030;5.350;2022-07-10T18:33:35;23.70;53.10
63966;DHT22;50151;52.030;5.350;2022-07-10T18:36:29;23.30;54.10
63966;DHT22;50151;52.030;5.350;2022-07-10T18:38:56;23.10;55.00
63966;DHT22;50151;52.030;5.350;2022-07-10T18:41:23;23.20;55.00
63966;DHT22;50151;52.030;5.350;2022-07-10T18:43:50;23.00;55.70
63966;DHT22;50151;52.030;5.350;2022-07-10T18:46:17;23.20;55.70
63966;DHT22;50151;52.030;5.350;2022-07-10T18:48:44;23.30;55.10
63966;DHT22;50151;52.030;5.350;2022-07-10T18:51:11;23.00;55.00
63966;DHT22;50151;52.030;5.350;2022-07-10T18:53:43;22.90;55.70
63966;DHT22;50151;52.030;5.350;2022-07-10T18:56:11;22.70;56.10
63966;DHT22;50151;52.030;5.350;2022-07-10T18:58:38;22.60;57.00
63966;DHT22;50151;52.030;5.350;2022-07-10T19:01:05;22.70;56.70
63966;DHT22;50151;52.030;5.350;2022-07-10T19:03:32;22.40;56.70
63966;DHT22;50151;52.030;5.350;2022-07-10T19:05:59;22.30;57.80
63966;DHT22;50151;52.030;5.350;2022-07-10T19:08:26;22.20;58.20
63966;DHT22;50151;52.030;5.350;2022-07-10T19:10:53;22.00;58.70
63966;DHT22;50151;52.030;5.350;2022-07-10T19:13:20;21.90;59.00
63966;DHT22;50151;52.030;5.350;2022-07-10T19:15:48;21.80;59.10
63966;DHT22;50151;52.030;5.350;2022-07-10T19:18:16;21.80;59.70
63966;DHT22;50151;52.030;5.350;2022-07-10T19:20:44;21.80;60.00
63966;DHT22;50151;52.030;5.350;2022-07-10T19:23:11;21.50;60.40
63966;DHT22;50151;52.030;5.350;2022-07-10T19:25:38;21.50;60.50
63966;DHT22;50151;52.030;5.350;2022-07-10T19:28:05;21.60;60.80
63966;DHT22;50151;52.030;5.350;2022-07-10T19:30:33;21.40;61.20
63966;DHT22;50151;52.030;5.350;2022-07-10T19:33:01;21.20;61.50
63966;DHT22;50151;52.030;5.350;2022-07-10T19:35:27;21.20;62.10
63966;DHT22;50151;52.030;5.350;2022-07-10T19:37:54;21.00;62.50
63966;DHT22;50151;52.030;5.350;2022-07-10T19:40:21;21.10;62.10
63966;DHT22;50151;52.030;5.350;2022-07-10T19:42:48;21.10;62.30
63966;DHT22;50151;52.030;5.350;2022-07-10T19:45:16;21.00;62.60
63966;DHT22;50151;52.030;5.350;2022-07-10T19:47:42;20.90;62.90
63966;DHT22;50151;52.030;5.350;2022-07-10T19:50:09;20.90;63.10
63966;DHT22;50151;52.030;5.350;2022-07-10T19:52:36;20.90;63.60
63966;DHT22;50151;52.030;5.350;2022-07-10T19:55:03;20.90;63.60
63966;DHT22;50151;52.030;5.350;2022-07-10T19:57:31;20.90;63.70
63966;DHT22;50151;52.030;5.350;2022-07-10T19:59:58;20.90;63.90
63966;DHT22;50151;52.030;5.350;2022-07-10T20:02:24;21.00;63.60
63966;DHT22;50151;52.030;5.350;2022-07-10T20:04:51;20.90;63.80
63966;DHT22;50151;52.030;5.350;2022-07-10T20:07:18;20.90;64.00
63966;DHT22;50151;52.030;5.350;2022-07-10T20:09:45;20.90;64.20
63966;DHT22;50151;52.030;5.350;2022-07-10T20:12:11;21.00;64.20
63966;DHT22;50151;52.030;5.350;2022-07-10T20:14:38;20.90;64.40
63966;DHT22;50151;52.030;5.350;2022-07-10T20:17:05;20.80;64.40
63966;DHT22;50151;52.030;5.350;2022-07-10T20:19:32;20.80;64.60
63966;DHT22;50151;52.030;5.350;2022-07-10T20:21:58;20.80;64.90
63966;DHT22;50151;52.030;5.350;2022-07-10T20:24:25;20.70;65.10
63966;DHT22;50151;52.030;5.350;2022-07-10T20:26:53;20.60;65.70
63966;DHT22;50151;52.030;5.350;2022-07-10T20:29:20;20.50;65.60
63966;DHT22;50151;52.030;5.350;2022-07-10T20:31:47;20.60;65.70
63966;DHT22;50151;52.030;5.350;2022-07-10T20:34:14;20.50;66.00
63966;DHT22;50151;52.030;5.350;2022-07-10T20:36:41;20.50;66.00
63966;DHT22;50151;52.030;5.350;2022-07-10T20:39:26;20.50;66.00
63966;DHT22;50151;52.030;5.350;2022-07-10T20:41:53;20.60;66.20
63966;DHT22;50151;52.030;5.350;2022-07-10T20:44:20;20.40;66.40
63966;DHT22;50151;52.030;5.350;2022-07-10T20:46:46;20.40;66.50
63966;DHT22;50151;52.030;5.350;2022-07-10T20:49:13;20.40;66.60
63966;DHT22;50151;52.030;5.350;2022-07-10T20:51:40;20.40;66.80
63966;DHT22;50151;52.030;5.350;2022-07-10T20:54:08;20.30;67.00
63966;DHT22;50151;52.030;5.350;2022-07-10T20:56:35;20.30;67.20
63966;DHT22;50151;52.030;5.350;2022-07-10T20:59:02;20.30;67.50
63966;DHT22;50151;52.030;5.350;2022-07-10T21:01:29;20.10;68.20
63966;DHT22;50151;52.030;5.350;2022-07-10T21:03:57;20.10;68.60
63966;DHT22;50151;52.030;5.350;2022-07-10T21:06:24;20.00;69.00
63966;DHT22;50151;52.030;5.350;2022-07-10T21:08:51;19.90;69.40
63966;DHT22;50151;52.030;5.350;2022-07-10T21:11:18;19.80;69.50
63966;DHT22;50151;52.030;5.350;2022-07-10T21:13:45;19.80;69.80
63966;DHT22;50151;52.030;5.350;2022-07-10T21:16:11;19.80;70.00
63966;DHT22;50151;52.030;5.350;2022-07-10T21:18:39;19.70;70.10
63966;DHT22;50151;52.030;5.350;2022-07-10T21:21:06;19.60;70.40
63966;DHT22;50151;52.030;5.350;2022-07-10T21:23:32;19.60;70.40
63966;DHT22;50151;52.030;5.350;2022-07-10T21:26:04;19.50;70.70
63966;DHT22;50151;52.030;5.350;2022-07-10T21:28:31;19.50;70.80
63966;DHT22;50151;52.030;5.350;2022-07-10T21:30:57;19.50;70.80
63966;DHT22;50151;52.030;5.350;2022-07-10T21:33:25;19.40;71.10
